Time;durP1;ratioP1;P1;durP2;ratioP2;P2;SDS_P1;SDS_P2;PMS_P1;PMS_P2;Temp;Humidity;BMP_temperature;BMP_pressure;BME280_temperature;BME280_humidity;BME280_pressure;Samples;Min_cycle;Max_cycle;Signal;HPM_P1;HPM_P2
2023/06/25 00:02:23;;;;;;;10.47;5.17;;;;;;;17.20;100.00;101664.59;5054335;28;21000;-71
2023/06/25 00:04:50;;;;;;;12.93;6.37;;;;;;;17.18;100.00;101660.56;5054680;28;20457;-71
2023/06/25 00:07:17;;;;;;;10.00;4.93;;;;;;;17.17;100.00;101659.75;5054669;28;20478;-74
2023/06/25 00:09:52;;;;;;;16.20;5.73;;;;;;;17.04;100.00;101661.50;5054186;28;20500;-72
2023/06/25 00:12:19;;;;;;;10.00;5.37;;;;;;;17.05;100.00;101663.13;5054851;28;20513;-71
2023/06/25 00:14:45;;;;;;;16.03;5.90;;;;;;;17.15;100.00;101672.97;5054510;28;20450;-72
2023/06/25 00:17:17;;;;;;;10.47;5.30;;;;;;;17.20;100.00;101667.34;5054355;28;20848;-72
2023/06/25 00:19:43;;;;;;;15.27;5.97;;;;;;;17.16;100.00;101663.63;5054270;28;20466;-72
2023/06/25 00:22:11;;;;;;;10.80;6.07;;;;;;;17.11;100.00;101661.84;5054186;28;20445;-72
2023/06/25 00:24:37;;;;;;;12.73;6.10;;;;;;;17.17;100.00;101659.75;5053916;28;20984;-72
2023/06/25 00:27:04;;;;;;;10.80;5.60;;;;;;;17.25;100.00;101660.91;5053905;28;20972;-70
2023/06/25 00:29:31;;;;;;;11.87;5.83;;;;;;;17.25;100.00;101658.97;5054059;28;20584;-72
2023/06/25 00:31:58;;;;;;;12.77;6.00;;;;;;;17.28;100.00;101655.59;5053674;28;20486;-72
2023/06/25 00:34:25;;;;;;;12.90;5.77;;;;;;;17.19;100.00;101657.53;5054028;28;20442;-72
2023/06/25 00:36:52;;;;;;;11.33;5.93;;;;;;;17.19;100.00;101649.31;5053718;28;20438;-71
2023/06/25 00:39:19;;;;;;;9.50;5.27;;;;;;;17.26;100.00;101646.88;5053847;28;20442;-71
2023/06/25 00:41:46;;;;;;;13.10;6.80;;;;;;;17.33;100.00;101655.44;5053930;28;20452;-72
2023/06/25 00:44:12;;;;;;;10.10;4.90;;;;;;;17.35;100.00;101655.13;5053386;28;20577;-72
2023/06/25 00:46:39;;;;;;;12.80;6.80;;;;;;;17.25;100.00;101648.03;5053789;28;20442;-70
2023/06/25 00:49:06;;;;;;;13.17;5.80;;;;;;;17.37;100.00;101645.47;5053427;28;20932;-72
2023/06/25 00:51:35;;;;;;;15.30;6.40;;;;;;;17.48;100.00;101651.41;5053668;28;20462;-71
2023/06/25 00:54:05;;;;;;;12.27;5.60;;;;;;;17.52;100.00;101648.84;5053288;28;20496;-72
2023/06/25 00:56:32;;;;;;;11.53;5.20;;;;;;;17.59;100.00;101640.97;5053232;28;20576;-72
2023/06/25 00:59:01;;;;;;;11.30;5.33;;;;;;;17.60;100.00;101637.88;5053586;28;20452;-72
2023/06/25 01:01:36;;;;;;;10.63;5.53;;;;;;;17.53;100.00;101645.81;5053130;28;21027;-71
2023/06/25 01:04:07;;;;;;;9.83;5.07;;;;;;;17.62;100.00;101648.56;5053439;28;20466;-72
2023/06/25 01:06:40;;;;;;;10.60;5.33;;;;;;;17.56;100.00;101650.63;5052709;28;20921;-72
2023/06/25 01:09:11;;;;;;;9.83;4.20;;;;;;;17.55;100.00;101643.53;5053542;28;20427;-72
2023/06/25 01:11:38;;;;;;;14.23;5.20;;;;;;;17.60;100.00;101651.59;5053476;28;20470;-71
2023/06/25 01:14:05;;;;;;;13.20;5.20;;;;;;;17.55;100.00;101642.72;5053235;28;20538;-71
2023/06/25 01:16:32;;;;;;;12.97;5.90;;;;;;;17.59;100.00;101639.03;5053281;28;20442;-71
2023/06/25 01:19:02;;;;;;;11.23;5.30;;;;;;;17.63;100.00;101633.72;5053268;28;20525;-72
2023/06/25 01:21:30;;;;;;;14.47;6.37;;;;;;;17.56;100.00;101644.34;5053158;28;20470;-71
2023/06/25 01:23:58;;;;;;;11.33;5.50;;;;;;;17.63;100.00;101639.19;5053080;28;20581;-72
2023/06/25 01:26:24;;;;;;;11.00;5.53;;;;;;;17.61;100.00;101634.03;5053141;28;20438;-72
2023/06/25 01:28:55;;;;;;;11.50;5.50;;;;;;;17.62;100.00;101637.59;5052836;28;20442;-72
2023/06/25 01:31:24;;;;;;;11.60;5.80;;;;;;;17.64;100.00;101638.84;5052741;28;20484;-71
2023/06/25 01:33:51;;;;;;;11.07;5.07;;;;;;;17.64;100.00;101633.38;5053126;28;20445;-71
2023/06/25 01:36:18;;;;;;;11.87;5.90;;;;;;;17.77;100.00;101630.84;5053040;28;20881;-72
2023/06/25 01:38:44;;;;;;;12.37;6.23;;;;;;;17.77;100.00;101637.13;5053006;28;20548;-71
2023/06/25 01:41:13;;;;;;;9.63;5.23;;;;;;;17.79;100.00;101626.63;5052880;28;20541;-72
2023/06/25 01:43:39;;;;;;;12.30;6.43;;;;;;;17.84;100.00;101629.22;5052950;28;20524;-72
2023/06/25 01:46:06;;;;;;;10.47;6.00;;;;;;;17.77;100.00;101626.16;5052966;28;20865;-72
2023/06/25 01:48:33;;;;;;;11.37;6.10;;;;;;;17.78;100.00;101626.94;5052931;28;20449;-72
2023/06/25 01:50:59;;;;;;;11.47;6.00;;;;;;;17.87;100.00;101631.28;5052871;28;20501;-72
2023/06/25 01:53:26;;;;;;;14.87;6.87;;;;;;;17.87;100.00;101617.59;5052910;28;20446;-72
2023/06/25 01:55:53;;;;;;;11.53;5.90;;;;;;;17.92;100.00;101613.06;5052933;28;20447;-72
2023/06/25 01:58:21;;;;;;;9.27;5.20;;;;;;;17.96;100.00;101620.31;5052858;28;20442;-72
2023/06/25 02:00:48;;;;;;;14.83;6.73;;;;;;;17.90;100.00;101611.47;5052812;28;20834;-72
2023/06/25 02:03:15;;;;;;;13.87;5.83;;;;;;;17.98;100.00;101620.00;5052727;28;20482;-71
2023/06/25 02:05:41;;;;;;;12.90;6.03;;;;;;;18.00;100.00;101615.00;5052827;28;20525;-71
2023/06/25 02:08:08;;;;;;;12.53;5.67;;;;;;;18.04;100.00;101613.22;5052762;28;20446;-71
2023/06/25 02:10:34;;;;;;;10.67;5.37;;;;;;;18.04;100.00;101613.22;5052718;28;20557;-71
2023/06/25 02:13:01;;;;;;;12.33;5.60;;;;;;;18.08;100.00;101603.19;5052720;28;20479;-71
2023/06/25 02:15:31;;;;;;;11.67;5.67;;;;;;;18.13;100.00;101609.31;5052635;28;20446;-71
2023/06/25 02:17:57;;;;;;;12.30;5.90;;;;;;;18.14;100.00;101604.63;5052732;28;20450;-71
2023/06/25 02:20:24;;;;;;;10.70;5.53;;;;;;;18.07;100.00;101604.34;5056200;28;20501;-70
2023/06/25 02:22:51;;;;;;;12.63;5.77;;;;;;;18.10;100.00;101603.66;5056504;28;20485;-71
2023/06/25 02:25:18;;;;;;;10.17;5.23;;;;;;;18.10;100.00;101607.22;5056455;28;20453;-72
2023/06/25 02:27:44;;;;;;;15.70;5.83;;;;;;;18.07;100.00;101609.81;5056436;28;20442;-72
2023/06/25 02:30:12;;;;;;;11.30;5.73;;;;;;;18.11;100.00;101608.03;5056203;28;20585;-72
2023/06/25 02:32:40;;;;;;;10.90;6.17;;;;;;;18.17;100.00;101611.41;5056011;28;20422;-72
2023/06/25 02:35:08;;;;;;;9.50;5.40;;;;;;;18.11;100.00;101608.03;5056324;28;20474;-71
2023/06/25 02:37:34;;;;;;;11.47;5.50;;;;;;;18.11;100.00;101608.03;5056294;28;20442;-71
2023/06/25 02:40:01;;;;;;;14.17;6.23;;;;;;;18.19;100.00;101603.63;5056203;28;20462;-72
2023/06/25 02:42:28;;;;;;;13.23;5.80;;;;;;;18.21;100.00;101599.44;5056166;28;20536;-71
2023/06/25 02:44:54;;;;;;;12.23;5.00;;;;;;;18.23;100.00;101608.13;5056030;28;20478;-71
2023/06/25 02:47:21;;;;;;;11.40;5.57;;;;;;;18.28;100.00;101596.19;5056115;28;20882;-71
2023/06/25 02:49:49;;;;;;;12.13;5.87;;;;;;;18.31;100.00;101603.75;5055735;28;20903;-71
2023/06/25 02:52:15;;;;;;;13.27;5.40;;;;;;;18.24;100.00;101593.31;5056021;28;20530;-71
2023/06/25 02:54:42;;;;;;;10.93;5.40;;;;;;;18.29;100.00;101597.81;5055885;28;20442;-71
2023/06/25 02:57:09;;;;;;;12.63;6.40;;;;;;;18.28;100.00;101591.53;5055885;28;20450;-71
2023/06/25 02:59:35;;;;;;;10.87;5.63;;;;;;;18.28;100.00;101594.28;5055774;28;20549;-71
2023/06/25 03:02:02;;;;;;;10.10;5.67;;;;;;;18.26;100.00;101584.75;5055460;28;20448;-71
2023/06/25 03:04:28;;;;;;;10.63;5.30;;;;;;;18.29;100.00;101586.84;5055701;28;20576;-71
2023/06/25 03:06:56;;;;;;;13.50;5.40;;;;;;;18.34;100.00;101586.66;5055348;28;20512;-71
2023/06/25 03:09:23;;;;;;;10.00;5.50;;;;;;;18.33;100.00;101585.88;5055693;28;20481;-71
2023/06/25 03:11:50;;;;;;;10.10;5.80;;;;;;;18.36;100.00;101587.94;5055322;28;20537;-71
2023/06/25 03:14:16;;;;;;;11.83;6.00;;;;;;;18.34;100.00;101581.97;5055512;28;20880;-70
2023/06/25 03:16:43;;;;;;;11.77;6.17;;;;;;;18.38;100.00;101582.13;5055514;28;20446;-70
2023/06/25 03:19:09;;;;;;;11.17;6.00;;;;;;;18.45;100.00;101582.41;5055462;28;20858;-71
2023/06/25 03:21:36;;;;;;;11.83;6.00;;;;;;;18.46;100.00;101583.19;5055301;28;20494;-71
2023/06/25 03:24:05;;;;;;;10.60;6.07;;;;;;;18.42;100.00;101583.06;5057916;22;20498;-82
2023/06/25 03:26:32;;;;;;;13.40;5.40;;;;;;;18.45;100.00;101576.13;5039003;28;20521;-82
2023/06/25 03:28:58;;;;;;;12.20;6.03;;;;;;;18.45;100.00;101579.66;5039483;28;20519;-82
2023/06/25 03:31:25;;;;;;;12.30;5.03;;;;;;;18.49;100.00;101579.81;5062540;23;20518;-68
2023/06/25 03:33:52;;;;;;;14.23;5.67;;;;;;;18.52;100.00;101577.22;5035246;28;20489;-67
2023/06/25 03:36:19;;;;;;;11.67;5.07;;;;;;;18.52;100.00;101579.97;5035207;28;20479;-68
2023/06/25 03:38:45;;;;;;;13.23;6.17;;;;;;;18.55;100.00;101575.72;5035145;28;20793;-65
2023/06/25 03:41:13;;;;;;;10.80;5.90;;;;;;;18.63;100.00;101574.88;5035086;28;20546;-66
2023/06/25 03:43:40;;;;;;;9.70;5.00;;;;;;;18.68;100.00;101571.94;5034982;28;20489;-65
2023/06/25 03:46:06;;;;;;;11.07;5.27;;;;;;;18.69;100.00;101576.34;5035003;28;20450;-65
2023/06/25 03:48:33;;;;;;;9.63;4.80;;;;;;;18.70;100.00;101569.72;5035054;28;20443;-67
2023/06/25 03:50:59;;;;;;;13.40;6.37;;;;;;;18.77;100.00;101578.25;5035023;28;20537;-65
2023/06/25 03:53:27;;;;;;;11.23;5.87;;;;;;;18.79;100.00;101572.41;5034593;28;20441;-65
2023/06/25 03:55:54;;;;;;;13.20;5.73;;;;;;;18.81;100.00;101572.88;5034530;28;20526;-65
2023/06/25 03:58:21;;;;;;;13.33;5.27;;;;;;;18.84;100.00;101573.03;5034519;28;20530;-65
2023/06/25 04:00:48;;;;;;;12.93;6.10;;;;;;;18.87;100.00;101575.09;5034843;28;20531;-66
2023/06/25 04:03:15;;;;;;;11.93;5.00;;;;;;;18.89;100.00;101564.59;5034495;28;20443;-65
2023/06/25 04:05:41;;;;;;;10.53;5.03;;;;;;;18.93;100.00;101561.19;5034713;28;20538;-65
2023/06/25 04:08:08;;;;;;;12.10;5.47;;;;;;;18.98;100.00;101563.72;5034607;28;20475;-66
2023/06/25 04:10:35;;;;;;;11.13;5.47;;;;;;;19.02;100.00;101572.91;5034553;28;20629;-64
2023/06/25 04:13:01;;;;;;;16.30;6.30;;;;;;;19.05;100.00;101570.31;5034265;28;20926;-64
2023/06/25 04:15:29;;;;;;;9.63;5.13;;;;;;;19.08;100.00;101563.31;5034432;28;20461;-64
2023/06/25 04:17:56;;;;;;;10.63;5.00;;;;;;;19.08;100.00;101560.56;5034421;28;20535;-64
2023/06/25 04:20:25;;;;;;;11.87;5.13;;;;;;;19.10;100.00;101563.81;5034381;28;20439;-64
2023/06/25 04:22:51;;;;;;;11.20;5.43;;;;;;;19.16;100.00;101570.69;5034362;28;20446;-64
2023/06/25 04:25:18;;;;;;;9.53;4.30;;;;;;;19.18;100.00;101568.44;5034108;28;20541;-64
2023/06/25 04:27:45;;;;;;;9.43;4.50;;;;;;;19.25;100.00;101567.88;5034242;28;20641;-64
2023/06/25 04:30:12;;;;;;;8.10;4.57;;;;;;;19.28;100.00;101570.75;5033910;28;20486;-64
2023/06/25 04:32:40;;;;;;;10.83;4.90;;;;;;;19.33;100.00;101565.06;5033778;28;20451;-64
2023/06/25 04:35:08;;;;;;;9.00;4.60;;;;;;;19.39;100.00;101574.72;5034054;28;20458;-64
2023/06/25 04:37:34;;;;;;;11.57;5.80;;;;;;;19.46;100.00;101573.38;5033774;28;20466;-64
2023/06/25 04:40:05;;;;;;;10.30;5.07;;;;;;;19.50;100.00;101566.84;5033974;28;20535;-65
2023/06/25 04:42:32;;;;;;;11.13;5.20;;;;;;;19.55;100.00;101572.13;5033328;28;20526;-64
2023/06/25 04:44:58;;;;;;;10.23;5.37;;;;;;;19.58;100.00;101562.44;5033386;28;21084;-65
2023/06/25 04:47:25;;;;;;;10.57;4.70;;;;;;;19.64;100.00;101561.09;5033857;28;20522;-64
2023/06/25 04:49:53;;;;;;;10.60;5.20;;;;;;;19.68;100.00;101561.22;5033534;28;20906;-64
2023/06/25 04:52:20;;;;;;;12.90;5.17;;;;;;;19.73;100.00;101561.00;5033505;28;20980;-66
2023/06/25 04:54:46;;;;;;;11.10;4.90;;;;;;;19.79;100.00;101568.72;5033708;28;20545;-65
2023/06/25 04:57:13;;;;;;;8.93;5.07;;;;;;;19.84;100.00;101576.75;5033659;28;20435;-68
2023/06/25 04:59:40;;;;;;;10.10;5.13;;;;;;;19.89;100.00;101573.78;5033716;28;20447;-71
2023/06/25 05:02:07;;;;;;;12.13;5.77;;;;;;;19.96;100.00;101572.41;5033700;28;20455;-68
2023/06/25 05:04:33;;;;;;;12.70;6.07;;;;;;;20.02;100.00;101563.59;5033538;28;20860;-66
2023/06/25 05:07:01;;;;;;;12.73;5.77;;;;;;;20.09;100.00;101571.28;5033305;28;20945;-66
2023/06/25 05:09:28;;;;;;;11.80;5.10;;;;;;;20.15;100.00;101576.25;5033582;28;20466;-66
2023/06/25 05:11:54;;;;;;;10.77;4.47;;;;;;;20.24;100.00;101567.88;5033497;28;20522;-66
2023/06/25 05:14:21;;;;;;;8.93;4.37;;;;;;;20.30;100.00;101560.19;5033155;28;20543;-67
2023/06/25 05:16:47;;;;;;;10.20;5.07;;;;;;;20.38;100.00;101565.59;5033255;28;20453;-66
2023/06/25 05:19:14;;;;;;;9.53;4.37;;;;;;;20.47;100.00;101565.47;5033050;28;20489;-68
2023/06/25 05:21:41;;;;;;;11.10;4.90;;;;;;;20.54;100.00;101560.25;5033412;28;20482;-69
2023/06/25 05:24:09;;;;;;;9.87;4.60;;;;;;;20.60;100.00;101558.06;5032883;28;20483;-66
2023/06/25 05:26:35;;;;;;;10.30;5.00;;;;;;;20.68;100.00;101564.59;5033275;28;20446;-67
2023/06/25 05:29:02;;;;;;;10.67;4.17;;;;;;;20.76;100.00;101561.72;5033358;28;20869;-66
2023/06/25 05:31:29;;;;;;;11.60;4.60;;;;;;;20.83;100.00;101567.44;5032888;28;20962;-67
2023/06/25 05:33:56;;;;;;;10.60;4.30;;;;;;;20.88;100.00;101561.69;5033192;28;20470;-66
2023/06/25 05:36:23;;;;;;;8.63;4.30;;;;;;;20.95;100.00;101565.81;5032886;28;20934;-66
2023/06/25 05:38:50;;;;;;;8.70;4.27;;;;;;;21.02;100.00;101574.28;5033318;28;20495;-67
2023/06/25 05:41:18;;;;;;;9.30;4.40;;;;;;;21.08;97.62;101567.38;5033234;28;20447;-67
2023/06/25 05:43:44;;;;;;;7.30;3.67;;;;;;;21.11;94.66;101566.66;5032682;28;20467;-66
2023/06/25 05:46:13;;;;;;;9.80;3.50;;;;;;;21.15;92.17;101564.81;5033056;28;20470;-67
2023/06/25 05:48:39;;;;;;;8.60;3.97;;;;;;;21.20;92.17;101564.56;5033202;28;20522;-66
2023/06/25 05:51:06;;;;;;;8.50;3.17;;;;;;;21.23;89.75;101566.66;5033008;28;20443;-67
2023/06/25 05:53:38;;;;;;;9.60;3.90;;;;;;;21.30;89.42;101561.34;5035434;28;20482;-67
2023/06/25 05:56:05;;;;;;;8.63;3.70;;;;;;;21.35;88.24;101565.84;5037182;28;20529;-66
2023/06/25 05:58:33;;;;;;;8.80;3.70;;;;;;;21.40;87.02;101563.63;5037179;28;20533;-66
2023/06/25 06:01:00;;;;;;;8.33;3.93;;;;;;;21.46;86.27;101561.41;5037060;28;20483;-66
2023/06/25 06:03:26;;;;;;;9.40;3.83;;;;;;;21.50;84.99;101558.75;5036705;28;20457;-66
2023/06/25 06:05:53;;;;;;;10.07;4.33;;;;;;;21.54;84.34;101563.22;5036916;28;20482;-66
2023/06/25 06:08:20;;;;;;;7.17;3.13;;;;;;;21.59;83.35;101554.69;5036924;28;20447;-66
2023/06/25 06:10:47;;;;;;;7.93;3.50;;;;;;;21.66;83.47;101557.66;5036539;28;20486;-66
2023/06/25 06:13:13;;;;;;;8.47;3.80;;;;;;;21.71;83.03;101553.84;5036465;28;20442;-65
2023/06/25 06:15:41;;;;;;;9.90;4.30;;;;;;;21.74;81.74;101553.13;5037022;28;20491;-67
2023/06/25 06:18:08;;;;;;;7.67;3.90;;;;;;;21.76;81.58;101561.84;5036667;28;20450;-66
2023/06/25 06:20:35;;;;;;;8.27;3.63;;;;;;;21.81;81.44;101563.53;5036706;28;20451;-66
2023/06/25 06:23:03;;;;;;;10.67;3.57;;;;;;;21.88;81.64;101567.31;5036302;28;20521;-66
2023/06/25 06:25:30;;;;;;;9.33;4.03;;;;;;;21.96;82.04;101559.19;5036153;28;20490;-66
2023/06/25 06:27:56;;;;;;;9.03;3.60;;;;;;;22.01;81.60;101561.72;5036150;28;20818;-66
2023/06/25 06:30:23;;;;;;;7.47;3.10;;;;;;;22.08;81.15;101556.34;5036460;28;20447;-67
2023/06/25 06:32:51;;;;;;;8.90;3.40;;;;;;;22.16;80.98;101556.22;5036033;28;20562;-66
2023/06/25 06:35:18;;;;;;;7.20;3.27;;;;;;;22.17;78.48;101563.31;5036256;28;20550;-66
2023/06/25 06:37:45;;;;;;;9.00;3.73;;;;;;;22.30;79.02;101557.72;5036355;28;20443;-66
2023/06/25 06:40:12;;;;;;;8.63;3.40;;;;;;;22.40;79.32;101555.25;5036015;28;20977;-65
2023/06/25 06:42:39;;;;;;;8.40;3.93;;;;;;;22.48;78.09;101561.72;5036199;28;20497;-66
2023/06/25 06:45:06;;;;;;;8.00;3.47;;;;;;;22.52;77.56;101556.28;5035686;28;21096;-66
2023/06/25 06:47:33;;;;;;;10.60;4.60;;;;;;;22.64;77.07;101558.94;5036100;28;20478;-66
2023/06/25 06:50:01;;;;;;;8.30;3.83;;;;;;;22.73;77.21;101556.78;5036156;28;20465;-67
2023/06/25 06:52:28;;;;;;;7.47;3.63;;;;;;;22.78;77.43;101562.03;5035819;28;20450;-66
2023/06/25 06:54:55;;;;;;;8.60;3.47;;;;;;;22.81;76.22;101552.22;5035864;28;20550;-65
2023/06/25 06:57:22;;;;;;;9.30;3.50;;;;;;;22.86;75.97;101552.72;5036057;28;20451;-67
2023/06/25 06:59:48;;;;;;;9.50;3.63;;;;;;;22.94;74.93;101556.50;5035922;28;20533;-66
2023/06/25 07:02:15;;;;;;;8.80;3.80;;;;;;;22.98;73.99;101560.13;5035933;28;20526;-67
2023/06/25 07:04:41;;;;;;;8.77;3.60;;;;;;;22.97;73.89;101560.47;5034985;28;20486;-66
2023/06/25 07:07:09;;;;;;;8.33;3.40;;;;;;;23.08;75.75;101556.78;5035774;28;20447;-67
2023/06/25 07:09:36;;;;;;;9.00;3.50;;;;;;;23.15;75.26;101558.88;5035764;28;20902;-66
2023/06/25 07:12:03;;;;;;;8.93;3.10;;;;;;;23.21;74.71;101554.69;5035686;28;20450;-67
2023/06/25 07:14:29;;;;;;;8.60;3.47;;;;;;;23.24;74.00;101551.22;5035287;28;20985;-66
2023/06/25 07:16:57;;;;;;;7.30;2.73;;;;;;;23.32;72.28;101560.44;5035334;28;20646;-67
2023/06/25 07:19:23;;;;;;;7.40;3.37;;;;;;;23.45;73.42;101555.53;5035415;28;20538;-66
2023/06/25 07:21:50;;;;;;;9.57;4.07;;;;;;;23.52;72.48;101552.94;5035208;28;20946;-66
2023/06/25 07:24:18;;;;;;;7.20;3.10;;;;;;;23.58;71.67;101559.75;5035276;28;20506;-66
2023/06/25 07:26:44;;;;;;;9.87;3.77;;;;;;;23.64;70.33;101561.91;5035413;28;20451;-66
2023/06/25 07:29:11;;;;;;;7.73;3.47;;;;;;;23.74;70.77;101556.94;5035432;28;20435;-66
2023/06/25 07:31:37;;;;;;;7.97;3.70;;;;;;;23.84;71.96;101554.34;5035112;28;20552;-66
2023/06/25 07:34:04;;;;;;;10.10;3.90;;;;;;;23.93;72.08;101551.34;5035248;28;20465;-67
2023/06/25 07:36:31;;;;;;;7.47;2.90;;;;;;;23.99;70.52;101555.38;5034938;28;20513;-66
2023/06/25 07:38:58;;;;;;;8.40;3.30;;;;;;;24.02;69.69;101559.41;5034861;28;20898;-67
2023/06/25 07:41:26;;;;;;;8.90;3.57;;;;;;;24.07;70.72;101550.78;5034864;28;20533;-66
2023/06/25 07:43:52;;;;;;;6.20;2.57;;;;;;;24.00;68.96;101556.22;5035158;28;20463;-65
2023/06/25 07:46:19;;;;;;;14.83;3.70;;;;;;;24.07;69.21;101550.78;5034682;28;20479;-66
2023/06/25 07:48:45;;;;;;;11.10;3.97;;;;;;;24.00;67.04;101550.69;5035017;28;20479;-66
2023/06/25 07:51:12;;;;;;;8.23;3.20;;;;;;;24.07;67.28;101557.13;5034701;28;20534;-66
2023/06/25 07:53:39;;;;;;;7.23;3.27;;;;;;;24.17;69.16;101561.22;5034574;28;20467;-65
2023/06/25 07:56:05;;;;;;;8.10;3.60;;;;;;;24.19;67.27;101563.66;5034855;28;20792;-66
2023/06/25 07:58:34;;;;;;;8.70;3.60;;;;;;;24.13;66.37;101560.41;5034586;28;20478;-66
2023/06/25 08:01:01;;;;;;;8.30;3.80;;;;;;;24.10;68.70;101561.91;5034802;28;20439;-67
2023/06/25 08:03:27;;;;;;;7.60;3.40;;;;;;;23.99;67.78;101565.66;5034369;28;21020;-66
2023/06/25 08:05:54;;;;;;;9.77;4.10;;;;;;;24.08;69.08;101557.91;5034748;28;20479;-65
2023/06/25 08:08:21;;;;;;;8.23;3.00;;;;;;;24.16;68.77;101556.88;5034680;28;20497;-65
2023/06/25 08:10:51;;;;;;;8.10;2.77;;;;;;;24.35;68.54;101562.34;5034375;28;20490;-66
2023/06/25 08:13:17;;;;;;;8.13;3.50;;;;;;;24.48;68.35;101559.38;5034139;28;20454;-67
2023/06/25 08:15:45;;;;;;;8.03;3.00;;;;;;;24.47;66.80;101557.78;5033808;28;20541;-65
2023/06/25 08:18:12;;;;;;;6.20;2.63;;;;;;;24.37;66.13;101557.25;5033762;28;21022;-69
2023/06/25 08:20:38;;;;;;;8.30;3.00;;;;;;;24.43;68.61;101552.19;5034361;28;20475;-70
2023/06/25 08:23:05;;;;;;;8.77;3.20;;;;;;;24.53;68.07;101548.81;5034478;28;20847;-70
2023/06/25 08:25:32;;;;;;;8.83;3.40;;;;;;;24.68;67.61;101552.56;5034283;28;20491;-70
2023/06/25 08:27:58;;;;;;;8.60;3.40;;;;;;;24.65;67.45;101556.88;5034370;28;20443;-72
2023/06/25 08:30:25;;;;;;;8.03;3.73;;;;;;;24.76;68.61;101553.47;5034347;28;20849;-68
2023/06/25 08:32:53;;;;;;;7.53;3.03;;;;;;;24.81;68.17;101553.94;5033707;28;20491;-68
2023/06/25 08:35:19;;;;;;;7.43;3.27;;;;;;;24.87;68.82;101549.66;5033689;28;20459;-70
2023/06/25 08:37:46;;;;;;;6.70;2.93;;;;;;;24.91;67.70;101549.72;5033929;28;20443;-69
2023/06/25 08:40:13;;;;;;;7.73;3.00;;;;;;;25.10;69.98;101551.56;5034061;28;20479;-69
2023/06/25 08:42:41;;;;;;;7.50;3.43;;;;;;;25.27;69.04;101550.19;5034101;28;20439;-68
2023/06/25 08:45:09;;;;;;;9.87;3.77;;;;;;;25.30;68.11;101544.69;5033367;28;21001;-68
2023/06/25 08:47:39;;;;;;;7.27;3.10;;;;;;;25.35;66.77;101552.69;5033940;28;20478;-67
2023/06/25 08:50:08;;;;;;;7.43;3.40;;;;;;;25.52;65.41;101550.50;5033810;28;20446;-67
2023/06/25 08:52:35;;;;;;;9.30;3.67;;;;;;;25.66;65.27;101556.19;5033397;28;20454;-67
2023/06/25 08:55:02;;;;;;;8.10;3.07;;;;;;;25.88;69.93;101541.38;5033665;28;20461;-67
2023/06/25 08:57:29;;;;;;;7.97;3.23;;;;;;;26.04;68.54;101548.66;5033623;28;20438;-67
2023/06/25 08:59:55;;;;;;;7.10;2.67;;;;;;;26.16;66.16;101551.94;5033305;28;20443;-67
2023/06/25 09:02:22;;;;;;;8.47;3.30;;;;;;;26.15;63.55;101555.88;5033563;28;20508;-67
2023/06/25 09:04:49;;;;;;;6.47;2.70;;;;;;;26.14;64.93;101551.50;5033193;28;20459;-67
2023/06/25 09:07:19;;;;;;;7.67;3.50;;;;;;;26.15;62.62;101549.53;5033450;28;20447;-67
2023/06/25 09:09:52;;;;;;;7.97;2.57;;;;;;;26.07;61.94;101553.44;5033427;28;20443;-67
2023/06/25 09:12:23;;;;;;;7.30;2.97;;;;;;;26.27;64.42;101551.22;5033181;28;20436;-67
2023/06/25 09:14:50;;;;;;;7.80;3.13;;;;;;;26.32;63.03;101548.09;5033555;28;20475;-67
2023/06/25 09:17:20;;;;;;;10.70;2.73;;;;;;;26.46;64.39;101542.66;5033382;28;20445;-67
2023/06/25 09:19:47;;;;;;;6.50;2.67;;;;;;;26.50;60.57;101553.78;5033547;28;20426;-67
2023/06/25 09:22:14;;;;;;;7.33;3.37;;;;;;;26.49;59.29;101541.88;5033331;28;20526;-68
2023/06/25 09:24:44;;;;;;;6.43;2.60;;;;;;;26.50;60.23;101542.69;5033303;28;20839;-68
2023/06/25 09:27:11;;;;;;;7.10;2.60;;;;;;;26.63;59.96;101539.19;5032603;28;20575;-67
2023/06/25 09:29:38;;;;;;;7.10;3.10;;;;;;;26.67;59.76;101533.66;5042682;22;20439;-78
2023/06/25 09:32:08;;;;;;;7.43;3.00;;;;;;;26.66;58.36;101537.63;5033206;28;20510;-77
2023/06/25 09:34:35;;;;;;;9.97;3.53;;;;;;;26.72;59.20;101536.06;5035460;28;20522;-79
2023/06/25 09:37:03;;;;;;;10.47;3.30;;;;;;;26.60;59.61;101534.41;5036308;28;20526;-80
2023/06/25 09:39:31;;;;;;;10.50;2.70;;;;;;;26.77;59.32;101532.13;5044562;23;20586;-79
2023/06/25 09:42:00;;;;;;;5.90;2.57;;;;;;;26.68;57.08;101529.69;5036623;28;20442;-78
2023/06/25 09:44:27;;;;;;;8.90;2.90;;;;;;;26.79;56.64;101521.41;5037677;28;20450;-77
2023/06/25 09:46:59;;;;;;;7.10;2.50;;;;;;;26.80;58.16;101528.56;5038321;28;20926;-78
2023/06/25 09:49:30;;;;;;;6.10;2.23;;;;;;;26.71;57.24;101520.56;5041817;28;20463;-78
2023/06/25 09:52:00;;;;;;;6.70;3.00;;;;;;;26.74;59.76;101524.53;5039660;28;20526;-77
2023/06/25 09:54:29;;;;;;;7.73;3.07;;;;;;;26.79;62.97;101519.44;5037724;28;20439;-77
2023/06/25 09:56:58;;;;;;;8.00;3.77;;;;;;;26.84;63.55;101518.25;5037725;28;20442;-78
2023/06/25 09:59:27;;;;;;;7.63;3.00;;;;;;;26.60;61.16;101512.16;5042848;28;20471;-78
2023/06/25 10:01:54;;;;;;;6.50;2.63;;;;;;;26.55;60.33;101512.53;5038796;28;20454;-77
2023/06/25 10:04:21;;;;;;;9.00;2.80;;;;;;;26.66;59.94;101512.63;5035151;28;20443;-77
2023/06/25 10:06:48;;;;;;;7.77;3.00;;;;;;;26.50;61.17;101510.13;5037740;28;21012;-78
2023/06/25 10:09:15;;;;;;;7.77;3.23;;;;;;;26.58;60.82;101497.88;5034879;28;20502;-77
2023/06/25 10:11:50;;;;;;;7.07;2.87;;;;;;;26.58;61.32;101497.88;5034166;28;20481;-80
2023/06/25 10:14:17;;;;;;;8.80;3.40;;;;;;;26.80;57.89;101498.78;5034540;28;20542;-79
2023/06/25 10:16:52;;;;;;;5.47;2.07;;;;;;;26.79;58.04;101488.84;5034391;28;20446;-78
2023/06/25 10:19:21;;;;;;;10.37;2.83;;;;;;;26.62;59.75;101481.22;5034232;28;20513;-77
2023/06/25 10:21:59;;;;;;;7.10;3.10;;;;;;;26.49;59.47;101479.94;5034479;28;20526;-78
2023/06/25 10:24:25;;;;;;;7.57;2.70;;;;;;;26.46;61.65;101477.94;5034440;28;20431;-80
2023/06/25 10:26:54;;;;;;;9.47;2.60;;;;;;;26.53;60.19;101480.78;5034219;28;20487;-79
2023/06/25 10:29:20;;;;;;;6.17;2.87;;;;;;;26.68;57.71;101482.44;5035025;28;20467;-77
2023/06/25 10:31:49;;;;;;;6.77;2.50;;;;;;;26.77;56.31;101479.28;5036731;28;20439;-77
2023/06/25 10:34:16;;;;;;;8.33;3.27;;;;;;;26.85;58.13;101478.13;5035388;28;20522;-78
2023/06/25 10:36:50;;;;;;;7.10;2.07;;;;;;;27.00;57.78;101478.97;5034727;28;20457;-79
2023/06/25 10:39:17;;;;;;;7.77;2.77;;;;;;;27.11;61.49;101477.06;5033704;28;20474;-78
2023/06/25 10:41:48;;;;;;;5.87;2.40;;;;;;;27.31;59.24;101471.94;5038493;28;20527;-77
2023/06/25 10:44:15;;;;;;;7.43;2.43;;;;;;;27.45;59.35;101471.16;5039172;28;20425;-77
2023/06/25 10:46:41;;;;;;;6.00;2.40;;;;;;;27.47;60.14;101468.81;5038378;28;20537;-78
2023/06/25 10:49:13;;;;;;;7.40;3.00;;;;;;;27.52;61.40;101473.97;5040304;28;20491;-78
2023/06/25 10:51:39;;;;;;;6.00;2.40;;;;;;;27.44;62.31;101464.03;5038757;28;20443;-77
2023/06/25 10:54:06;;;;;;;6.40;2.97;;;;;;;27.50;57.27;101465.25;5037597;28;20954;-78
2023/06/25 10:56:36;;;;;;;6.10;2.40;;;;;;;27.86;58.13;101466.88;5037384;28;20447;-78
2023/06/25 10:59:03;;;;;;;6.20;2.20;;;;;;;28.12;55.93;101462.06;5037911;28;20558;-78
2023/06/25 11:01:34;;;;;;;7.90;2.83;;;;;;;28.27;52.79;101474.78;5042497;28;20450;-78
2023/06/25 11:04:01;;;;;;;7.23;2.87;;;;;;;28.29;51.68;101464.03;5041785;28;20428;-78
2023/06/25 11:06:29;;;;;;;7.10;2.60;;;;;;;28.26;53.02;101464.84;5038785;28;21008;-77
2023/06/25 11:08:56;;;;;;;6.27;2.10;;;;;;;28.43;54.00;101465.22;5038059;28;20550;-78
2023/06/25 11:11:22;;;;;;;8.43;2.37;;;;;;;28.66;54.90;101457.97;5036716;28;20950;-78
2023/06/25 11:13:49;;;;;;;7.17;2.73;;;;;;;28.85;55.59;101459.47;5037123;28;20514;-78
2023/06/25 11:16:16;;;;;;;11.90;3.20;;;;;;;29.06;53.39;101460.63;5036960;28;20526;-78
2023/06/25 11:18:43;;;;;;;6.13;2.37;;;;;;;29.19;51.30;101453.38;5036745;28;20489;-78